Aérodrome :
LOGIN :

S'inscrire | Disclaimer

   EN    FR    IT 

 










Légende :    VFR   VFR Marginal   IFR   IFR Intensif   IFR Très Intensif
Visi : 
Plafond : 
>= 8 km
>= 3000ft
5 à 8 km
1000 à 3000 ft
1500m à 5 km
500 à 1000 ft
800 à 1500m
200 à 500 ft
< 800m
< 200 ft
Symboles :   Orages  Brouillard  Fortes neiges  Fortes précipitations  Vent > 20 kt
SIGMETs :   Divers  Orages  Givrage  Turbulence  Onde Orograph.  Cendres Volcan.







- Altitude de l'aérodrome : 374 ft
- Code IATA : LIS


LPPT - Lisboa Portela

DERNIER METAR :
  • 221500Z 31009KT 280V340 9999 BKN018 12/09 Q1023

METARs EXPIRÉS :
  • 221430Z 31010KT 9999 FEW015 BKN022 12/09 Q1023
  • 221400Z 32010KT 290V360 9999 FEW015 BKN022 12/08 Q1023
  • 221330Z 32011KT 290V350 9999 FEW012 BKN016 12/09 Q1023
  • 221300Z 31009KT 290V350 9999 -RA FEW012 BKN016 11/09 Q1024
  • 221230Z 32012KT 290V350 9999 FEW012 BKN018 12/08 Q1024

TAF TAF LPPT
Valide du 22 à 12h jusqu'au 23 à 18h UTC


221130Z 2212/2318 33015KT 9999 SCT018 SCT035
TEMPO 2215/2218 6000 -RA BKN020
PROB40
TEMPO 2215/2318 33020G30KT
Pas de NOTAMs connus pour ce terrain.



MET'MAP, la Météo Aéronautique d'un coup d'oeil ! - Copyright ORBIFLY Décembre 2007 - Disclaimer

ORBIFLY MET'MAP TEAM :

Programmation & Développement : Alexandra Zaïnal
Conception & Développement : Baudouin d'Aumeries
Co-Programmation & Développement : Marc-Olivier Méhu
Soutien technique & logistique : Manuel Goepfert

Contact : metmap@orbifly.com




SOURCES & CREDITS :

   NOAA